Tropical Cyclones
[Index]
Main Index Home Page Stock Weather Photos Extreme Storms Discussion Storm News and Storm Chasing Reports Tropical Cyclones / Hurricanes / Typhoons Weather Data and Links Wild Fires / Bushfires Weather Observation Techniques Weather Picture Catalogue Tornado Pictures and Reports Stock Video Footage and DVDs for sale
Season 1989-1990 Tropical Cyclone PEDRO Track Map
Season 1989-1990 Summaries: [BoM-AU] [JTWC-AU] [JTWC-SIO] [JTWC-SPAC] [JTWC-SH]
<<- Previous TC | BoM 1989-1990 Season | Next TC ->>

click for intensity scale information  Lat/long Grid: Show Hide

 Date Labels: Show Hide

Bureau of Meteorology Tropical Cyclone Data

Name: PEDRO
Number: 720 / 198990_01

06 Nov 1989 00:00 UTC to 13 Nov 1989 06:00 UTC

    date/time    lat    long    hPa   cat  kts
1989-11-06 00    7.8    97.2   1005         23          
1989-11-06 06    7.4    96.7   1003         27          
1989-11-06 12    7.0    96.5   1002         27          
1989-11-06 18    6.7    96.4   1001         29          
1989-11-07 00    6.6    96.1   1000         31          
1989-11-07 06    6.8    95.5    999         33          
1989-11-07 12    6.9    94.8    999         33          
1989-11-07 18    7.0    94.3    998         35          
1989-11-08 00    7.0    93.8    997         35          
1989-11-08 06    7.7    93.5    996         37          
1989-11-08 12    8.4    93.7    996         37          
1989-11-08 18    9.0    94.0    995    1    39          
1989-11-09 00    9.7    94.2    995    1    39          
1989-11-09 06   10.3    94.5    995    1    39          
1989-11-09 12   11.0    94.9    992    1    43          
1989-11-09 18   11.5    95.1    988    1    49          
1989-11-10 00   12.0    95.3    984    2    56          
1989-11-10 06   12.4    95.5    982    2    58          
1989-11-10 12   12.9    95.9    982    2    58          
1989-11-10 18   13.3    96.1    984    2    56          
1989-11-11 00   14.0    96.1    986    1    52          
1989-11-11 06   14.6    96.0    988    1    49          
1989-11-11 12   15.5    95.8    990    1    47          
1989-11-11 18   16.5    95.6    992    1    43          
1989-11-12 00   17.5    95.0    992    1    43          
1989-11-12 06   18.4    94.5    994    1    41          
1989-11-12 12   19.3    94.4    994    1    41          
1989-11-12 18   20.2    94.5    995    1    39          
1989-11-13 00   20.7    95.2    995    1    39          
1989-11-13 06   20.9    96.3    997         35          
Winds are 10-min average.

Tropical cyclone tracks developed by Michael Bath using data from the Bureau of Meteorology and Google Maps.


[Australian Severe Weather index] [Copyright Notice] [Email Contacts] [Search This Site] [Privacy Policy]
Document: tropical_cyclone_pedro.htm Updated: 30 May 2013